createdAt,value
2022-10-23T00:01:30.705Z,18.07
2022-10-23T00:04:00.476Z,18.09
2022-10-23T00:06:28.770Z,18.16
2022-10-23T00:08:56.330Z,18.13
2022-10-23T00:11:26.894Z,18.10
2022-10-23T00:13:55.719Z,18.08
2022-10-23T00:16:22.744Z,18.06
2022-10-23T00:18:49.375Z,18.08
2022-10-23T00:21:17.484Z,18.03
2022-10-23T00:23:45.467Z,17.96
2022-10-23T00:26:16.251Z,17.91
2022-10-23T00:28:49.476Z,17.85
2022-10-23T00:31:16.224Z,17.78
2022-10-23T00:33:43.096Z,17.71
2022-10-23T00:36:12.899Z,17.65
2022-10-23T00:38:40.208Z,17.60
2022-10-23T00:41:08.630Z,17.55
2022-10-23T00:43:54.123Z,17.57
2022-10-23T00:46:20.695Z,17.58
2022-10-23T00:48:47.205Z,17.57
2022-10-23T00:51:13.725Z,17.59
2022-10-23T00:53:40.261Z,17.55
2022-10-23T00:56:06.988Z,17.57
2022-10-23T00:58:33.498Z,17.52
2022-10-23T01:01:00.018Z,17.63
2022-10-23T01:03:29.021Z,17.74
2022-10-23T01:06:16.578Z,17.86
2022-10-23T01:08:52.442Z,17.87
2022-10-23T01:11:26.395Z,17.86
2022-10-23T01:14:08.071Z,17.84
2022-10-23T01:16:41.806Z,17.79
2022-10-23T01:19:21.771Z,17.73
2022-10-23T01:22:07.377Z,17.70
2022-10-23T01:24:48.859Z,17.62
2022-10-23T01:27:24.270Z,17.44
2022-10-23T01:30:03.303Z,17.57
2022-10-23T01:32:51.029Z,17.60
2022-10-23T01:35:22.733Z,17.62
2022-10-23T01:37:58.112Z,17.63
2022-10-23T01:40:36.543Z,17.63
2022-10-23T01:43:13.332Z,17.61
2022-10-23T01:45:48.971Z,17.71
2022-10-23T01:48:19.114Z,17.73
2022-10-23T01:50:47.029Z,17.75
2022-10-23T01:53:13.617Z,17.74
2022-10-23T01:58:16.091Z,17.66
2022-10-23T02:00:45.564Z,17.82
2022-10-23T02:03:15.278Z,17.79
2022-10-23T02:05:43.618Z,17.82
2022-10-23T02:08:10.575Z,17.75
2022-10-23T02:11:01.911Z,17.74
2022-10-23T02:13:53.921Z,17.71
2022-10-23T02:16:31.999Z,17.70
2022-10-23T02:19:17.765Z,17.69
2022-10-23T02:22:02.109Z,17.62
2022-10-23T02:24:36.433Z,17.66
2022-10-23T02:27:08.062Z,17.56
2022-10-23T02:29:40.000Z,17.64
2022-10-23T02:32:10.163Z,17.58
2022-10-23T02:34:36.717Z,17.61
2022-10-23T02:37:03.695Z,17.59
2022-10-23T02:39:30.417Z,17.54
2022-10-23T02:42:22.018Z,17.47
2022-10-23T02:44:59.829Z,17.54
2022-10-23T02:47:55.281Z,17.54
2022-10-23T02:50:26.794Z,17.52
2022-10-23T02:52:59.001Z,17.52
2022-10-23T02:55:36.695Z,17.48
2022-10-23T02:58:09.230Z,17.46
2022-10-23T03:00:39.354Z,17.47
2022-10-23T03:03:14.944Z,17.44
2022-10-23T03:05:42.115Z,17.39
2022-10-23T03:08:10.246Z,17.43
2022-10-23T03:10:37.303Z,17.43
2022-10-23T03:13:04.155Z,17.40
2022-10-23T03:15:30.852Z,17.40
2022-10-23T03:17:57.382Z,17.36
2022-10-23T03:20:24.256Z,17.27
2022-10-23T03:22:50.771Z,17.24
2022-10-23T03:25:17.403Z,17.27
2022-10-23T03:27:43.966Z,17.29
2022-10-23T03:30:10.994Z,17.32
2022-10-23T03:32:37.541Z,17.32
2022-10-23T03:35:04.539Z,17.35
2022-10-23T03:37:31.057Z,17.29
2022-10-23T03:39:57.606Z,17.33
2022-10-23T03:42:24.131Z,17.35
2022-10-23T03:44:50.681Z,17.26
2022-10-23T03:47:17.332Z,17.33
2022-10-23T03:49:43.848Z,17.25
2022-10-23T03:52:10.491Z,17.22
2022-10-23T03:54:37.002Z,17.24
2022-10-23T03:57:03.624Z,17.30
2022-10-23T03:59:30.234Z,17.24
2022-10-23T04:01:56.967Z,17.26
2022-10-23T04:04:23.603Z,17.15
2022-10-23T04:06:50.133Z,17.19
2022-10-23T04:09:16.923Z,17.14
2022-10-23T04:11:43.490Z,17.14
2022-10-23T04:14:13.317Z,17.16
2022-10-23T04:16:40.524Z,17.20
2022-10-23T04:19:07.098Z,17.19
2022-10-23T04:21:33.802Z,17.13
2022-10-23T04:24:00.327Z,17.20
2022-10-23T04:26:26.845Z,17.13
2022-10-23T04:28:53.367Z,17.17
2022-10-23T04:31:20.042Z,17.13
2022-10-23T04:33:47.402Z,17.17
2022-10-23T04:36:14.013Z,17.18
2022-10-23T04:38:40.610Z,17.10
2022-10-23T04:41:07.189Z,17.11
2022-10-23T04:43:33.824Z,17.03
2022-10-23T04:46:00.704Z,17.06
2022-10-23T04:48:29.129Z,16.94
2022-10-23T04:50:59.645Z,17.09
2022-10-23T04:53:27.414Z,17.05
2022-10-23T04:55:55.984Z,16.96
2022-10-23T04:58:24.035Z,16.93
2022-10-23T05:00:51.416Z,16.89
2022-10-23T05:03:18.902Z,16.81
2022-10-23T05:05:45.871Z,16.72
2022-10-23T05:08:15.636Z,16.83
2022-10-23T05:10:44.614Z,16.68
2022-10-23T05:13:11.102Z,16.74
2022-10-23T05:15:37.714Z,16.54
2022-10-23T05:18:16.221Z,16.69
2022-10-23T05:20:45.256Z,16.59
2022-10-23T05:23:15.019Z,16.59
2022-10-23T05:25:41.573Z,16.58
2022-10-23T05:28:08.087Z,16.54
2022-10-23T05:30:34.849Z,16.49
2022-10-23T05:33:03.046Z,16.49
2022-10-23T05:35:30.244Z,16.38
2022-10-23T05:37:58.932Z,16.49
2022-10-23T05:40:25.804Z,16.48
2022-10-23T05:42:52.435Z,16.34
2022-10-23T05:45:19.054Z,16.34
2022-10-23T05:47:46.668Z,16.29
2022-10-23T05:50:13.341Z,16.32
2022-10-23T05:52:40.372Z,16.37
2022-10-23T05:55:08.898Z,16.36
2022-10-23T05:57:35.455Z,16.35
2022-10-23T06:00:02.391Z,16.30
2022-10-23T06:02:29.127Z,16.34
2022-10-23T06:04:55.814Z,16.21
2022-10-23T06:07:29.175Z,16.29
2022-10-23T06:09:57.815Z,16.25
2022-10-23T06:12:24.498Z,16.23
2022-10-23T06:14:51.960Z,16.16
2022-10-23T06:17:18.698Z,16.17
2022-10-23T06:19:46.190Z,16.30
2022-10-23T06:22:12.792Z,16.28
2022-10-23T06:24:39.340Z,16.35
2022-10-23T06:27:06.041Z,16.47
2022-10-23T06:29:32.669Z,16.44
2022-10-23T06:31:59.171Z,16.72
2022-10-23T06:34:25.738Z,16.75
2022-10-23T06:36:52.484Z,16.99
2022-10-23T06:39:20.904Z,16.99
2022-10-23T06:41:47.462Z,17.09
2022-10-23T06:44:14.116Z,17.10
2022-10-23T06:46:40.769Z,17.14
2022-10-23T06:49:07.288Z,17.41
2022-10-23T06:51:33.897Z,17.50
2022-10-23T06:54:00.463Z,17.43
2022-10-23T06:56:29.240Z,17.50
2022-10-23T06:58:56.592Z,17.76
2022-10-23T07:01:23.300Z,18.16
2022-10-23T07:03:49.918Z,18.55
2022-10-23T07:06:16.430Z,18.95
2022-10-23T07:08:43.160Z,19.50
2022-10-23T07:11:11.357Z,19.96
2022-10-23T07:13:39.351Z,20.52
2022-10-23T07:16:15.017Z,21.21
2022-10-23T07:18:41.882Z,21.67
2022-10-23T07:21:08.788Z,22.04
2022-10-23T07:23:35.641Z,22.29
2022-10-23T07:26:05.239Z,22.30
2022-10-23T07:28:31.881Z,22.27
2022-10-23T07:30:59.545Z,22.10
2022-10-23T07:33:26.181Z,22.17
2022-10-23T07:35:53.118Z,22.23
2022-10-23T07:38:19.739Z,22.67
2022-10-23T07:40:46.395Z,22.98
2022-10-23T07:43:12.948Z,23.61
2022-10-23T07:45:39.670Z,23.89
2022-10-23T07:48:06.273Z,24.46
2022-10-23T07:50:32.807Z,24.89
2022-10-23T07:52:59.311Z,25.25
2022-10-23T07:55:25.910Z,25.37
2022-10-23T07:57:52.425Z,25.63
2022-10-23T08:00:19.107Z,25.83
2022-10-23T08:02:45.750Z,26.12
2022-10-23T08:05:12.294Z,25.90
2022-10-23T08:07:38.934Z,25.94
2022-10-23T08:10:06.140Z,26.30
2022-10-23T08:12:32.627Z,26.43
2022-10-23T08:14:59.231Z,26.42
2022-10-23T08:17:28.193Z,25.53
2022-10-23T08:19:55.001Z,25.82
2022-10-23T08:22:21.600Z,26.11
2022-10-23T08:24:48.106Z,26.10
2022-10-23T08:27:14.634Z,25.18
2022-10-23T08:29:41.207Z,26.42
2022-10-23T08:32:07.812Z,26.43
2022-10-23T08:34:34.408Z,27.00
2022-10-23T08:37:00.952Z,26.71
2022-10-23T08:39:27.459Z,25.55
2022-10-23T08:41:54.605Z,25.59
2022-10-23T08:44:47.314Z,25.52
2022-10-23T08:47:19.891Z,25.27
2022-10-23T08:49:56.684Z,25.08
2022-10-23T08:52:29.832Z,25.10
2022-10-23T08:55:22.059Z,25.36
2022-10-23T08:58:17.253Z,26.33
2022-10-23T09:00:45.134Z,26.73
2022-10-23T09:03:13.421Z,26.81
2022-10-23T09:06:01.864Z,26.68
2022-10-23T09:08:51.387Z,26.37
2022-10-23T09:11:26.530Z,26.03
2022-10-23T09:13:59.100Z,25.80
2022-10-23T09:16:49.856Z,24.96
2022-10-23T09:19:19.794Z,25.73
2022-10-23T09:21:49.937Z,26.02
2022-10-23T09:24:19.480Z,25.33
2022-10-23T09:26:49.594Z,25.88
2022-10-23T09:29:30.180Z,26.27
2022-10-23T09:31:59.060Z,26.27
2022-10-23T09:34:30.152Z,25.99
2022-10-23T09:36:59.891Z,26.74
2022-10-23T09:39:34.631Z,26.43
2022-10-23T09:42:04.988Z,26.84
2022-10-23T09:44:33.585Z,27.14
2022-10-23T09:47:12.036Z,27.33
2022-10-23T09:49:46.352Z,26.82
2022-10-23T09:52:12.999Z,26.68
2022-10-23T09:54:45.515Z,26.84
2022-10-23T09:57:18.007Z,27.24
2022-10-23T09:59:44.841Z,27.67
2022-10-23T10:02:28.611Z,26.72
2022-10-23T10:04:55.182Z,26.53
2022-10-23T10:07:24.518Z,26.77
2022-10-23T10:09:53.307Z,26.97
2022-10-23T10:12:39.403Z,26.37
2022-10-23T10:15:21.929Z,26.24
2022-10-23T10:18:07.279Z,25.68
2022-10-23T10:21:04.675Z,25.02
2022-10-23T10:23:45.810Z,25.36
2022-10-23T10:26:31.282Z,25.13
2022-10-23T10:29:13.068Z,24.56
2022-10-23T10:32:03.609Z,24.77
2022-10-23T10:34:39.141Z,25.28
2022-10-23T10:37:29.446Z,25.52
2022-10-23T10:40:10.024Z,25.72
2022-10-23T10:43:01.586Z,25.28
2022-10-23T10:45:41.754Z,25.20
2022-10-23T10:48:37.354Z,24.48
2022-10-23T10:51:11.289Z,24.22
2022-10-23T10:54:22.452Z,24.21
2022-10-23T10:56:49.130Z,24.22
2022-10-23T10:59:31.979Z,23.76
2022-10-23T11:02:25.261Z,24.01
2022-10-23T11:07:29.481Z,23.85
2022-10-23T11:09:58.973Z,23.84
2022-10-23T11:12:27.994Z,23.77
2022-10-23T11:14:57.419Z,23.67
2022-10-23T11:17:28.904Z,23.68
2022-10-23T11:20:05.438Z,23.51
2022-10-23T11:22:51.439Z,24.41
2022-10-23T11:25:47.119Z,24.69
2022-10-23T11:28:25.957Z,24.22
2022-10-23T11:31:06.151Z,24.64
2022-10-23T11:34:03.201Z,24.52
2022-10-23T11:36:56.505Z,24.45
2022-10-23T11:39:36.921Z,24.61
2022-10-23T11:42:06.241Z,24.52
2022-10-23T11:45:25.374Z,24.56
2022-10-23T11:48:02.982Z,24.74
2022-10-23T11:50:44.841Z,24.98
2022-10-23T11:53:33.183Z,25.02
2022-10-23T11:56:11.933Z,24.66
2022-10-23T11:58:47.606Z,24.66
2022-10-23T12:01:24.300Z,25.02
2022-10-23T12:04:12.635Z,25.06
2022-10-23T12:06:51.231Z,25.07
2022-10-23T12:09:54.353Z,25.03
2022-10-23T12:12:40.619Z,24.96
2022-10-23T12:15:16.295Z,24.81
2022-10-23T12:17:44.238Z,24.87
2022-10-23T12:20:11.180Z,25.25
2022-10-23T12:23:00.782Z,25.17
2022-10-23T12:25:46.313Z,25.19
2022-10-23T12:28:58.328Z,25.32
2022-10-23T12:32:04.175Z,25.45
2022-10-23T12:34:42.196Z,25.39
2022-10-23T12:37:08.702Z,25.46
2022-10-23T12:39:39.067Z,25.17
2022-10-23T12:42:27.116Z,25.29
2022-10-23T12:45:05.846Z,25.47
2022-10-23T12:47:32.824Z,25.42
2022-10-23T12:49:59.383Z,25.46
2022-10-23T12:52:26.015Z,25.58
2022-10-23T12:54:52.613Z,25.57
2022-10-23T12:57:30.271Z,25.35
2022-10-23T13:00:06.134Z,25.48
2022-10-23T13:02:36.256Z,24.99
2022-10-23T13:05:07.527Z,24.62
2022-10-23T13:07:37.872Z,24.56
2022-10-23T13:10:05.599Z,24.83
2022-10-23T13:12:38.641Z,24.80
2022-10-23T13:15:08.503Z,24.77
2022-10-23T13:17:36.533Z,24.82
2022-10-23T13:20:31.257Z,24.77
2022-10-23T13:23:08.046Z,24.49
2022-10-23T13:25:37.062Z,24.26
2022-10-23T13:28:25.438Z,24.11
2022-10-23T13:31:05.261Z,24.11
2022-10-23T13:33:38.059Z,24.09
2022-10-23T13:36:13.844Z,24.15
2022-10-23T13:39:02.361Z,24.14
2022-10-23T13:41:36.360Z,24.15
2022-10-23T13:44:03.068Z,24.17
2022-10-23T13:46:29.828Z,24.18
2022-10-23T13:48:56.421Z,24.13
2022-10-23T13:51:29.251Z,24.14
2022-10-23T13:53:57.353Z,24.24
2022-10-23T13:56:26.303Z,24.27
2022-10-23T13:58:53.569Z,24.24
2022-10-23T14:01:33.476Z,24.30
2022-10-23T14:04:00.279Z,24.23
2022-10-23T14:06:26.831Z,24.20
2022-10-23T14:08:53.321Z,24.29
2022-10-23T14:11:21.058Z,24.28
2022-10-23T14:13:48.623Z,24.31
2022-10-23T14:16:18.085Z,24.15
2022-10-23T14:18:44.913Z,24.17
2022-10-23T14:21:13.541Z,24.27
2022-10-23T14:23:40.365Z,24.25
2022-10-23T14:26:13.332Z,24.18
2022-10-23T14:28:39.992Z,24.17
2022-10-23T14:31:11.824Z,24.07
2022-10-23T14:33:39.077Z,24.02
2022-10-23T14:36:06.156Z,24.09
2022-10-23T14:38:32.748Z,24.00
2022-10-23T14:40:59.719Z,24.02
2022-10-23T14:43:27.034Z,23.94
2022-10-23T14:45:53.724Z,23.94
2022-10-23T14:48:20.216Z,23.90
2022-10-23T14:50:49.334Z,23.89
2022-10-23T14:53:16.260Z,23.88
2022-10-23T14:55:42.782Z,23.86
2022-10-23T14:58:09.377Z,23.83
2022-10-23T15:00:36.228Z,23.78
2022-10-23T15:03:02.836Z,23.83
2022-10-23T15:05:29.398Z,23.73
2022-10-23T15:07:56.767Z,23.65
2022-10-23T15:10:23.286Z,23.66
2022-10-23T15:12:49.975Z,23.63
2022-10-23T15:15:16.696Z,23.63
2022-10-23T15:17:43.802Z,23.65
2022-10-23T15:20:10.766Z,23.63
2022-10-23T15:22:37.286Z,23.58
2022-10-23T15:25:04.106Z,23.56
2022-10-23T15:27:30.584Z,23.51
2022-10-23T15:29:57.143Z,23.53
2022-10-23T15:32:23.782Z,23.48
2022-10-23T15:34:52.099Z,23.48
2022-10-23T15:37:18.636Z,23.45
2022-10-23T15:39:45.253Z,23.36
2022-10-23T15:42:11.844Z,23.26
2022-10-23T15:44:40.265Z,23.28
2022-10-23T15:47:06.871Z,23.23
2022-10-23T15:49:33.541Z,23.13
2022-10-23T15:52:00.475Z,23.10
2022-10-23T15:54:30.462Z,23.03
2022-10-23T15:56:59.399Z,22.91
2022-10-23T15:59:26.620Z,22.89
2022-10-23T16:01:53.263Z,22.80
2022-10-23T16:04:20.032Z,22.73
2022-10-23T16:06:46.796Z,22.68
2022-10-23T16:09:14.230Z,22.64
2022-10-23T16:11:42.527Z,22.55
2022-10-23T16:14:14.178Z,22.48
2022-10-23T16:16:41.144Z,22.38
2022-10-23T16:19:07.882Z,22.32
2022-10-23T16:21:36.281Z,22.25
2022-10-23T16:24:04.604Z,22.18
2022-10-23T16:26:31.821Z,22.10
2022-10-23T16:29:01.705Z,22.04
2022-10-23T16:31:29.837Z,21.95
2022-10-23T16:34:01.435Z,21.88
2022-10-23T16:36:28.630Z,21.73
2022-10-23T16:38:55.735Z,21.56
2022-10-23T16:41:22.362Z,21.50
2022-10-23T16:43:48.954Z,21.45
2022-10-23T16:46:21.067Z,21.38
2022-10-23T16:48:49.036Z,21.32
2022-10-23T16:51:21.829Z,21.22
2022-10-23T16:53:48.862Z,21.08
2022-10-23T16:56:18.649Z,21.01
2022-10-23T16:58:45.741Z,20.89
2022-10-23T17:01:21.000Z,20.81
2022-10-23T17:03:49.653Z,20.71
2022-10-23T17:06:18.320Z,20.60
2022-10-23T17:08:45.597Z,20.42
2022-10-23T17:11:17.784Z,20.38
2022-10-23T17:13:58.497Z,20.32
2022-10-23T17:16:35.076Z,20.28
2022-10-23T17:19:02.223Z,20.24
2022-10-23T17:21:33.681Z,20.24
2022-10-23T17:24:00.356Z,20.16
2022-10-23T17:26:27.744Z,20.19
2022-10-23T17:28:55.094Z,20.13
2022-10-23T17:31:24.664Z,20.13
2022-10-23T17:33:54.349Z,20.08
2022-10-23T17:36:21.878Z,20.05
2022-10-23T17:38:48.737Z,20.01
2022-10-23T17:41:18.341Z,19.90
2022-10-23T17:43:45.099Z,19.82
2022-10-23T17:46:13.434Z,19.71
2022-10-23T17:48:43.372Z,19.64
2022-10-23T17:51:18.773Z,19.62
2022-10-23T17:53:47.628Z,19.60
2022-10-23T17:56:19.859Z,19.60
2022-10-23T17:58:46.799Z,19.56
2022-10-23T18:01:16.279Z,19.59
2022-10-23T18:03:43.360Z,19.57
2022-10-23T18:06:16.141Z,19.54
2022-10-23T18:08:43.915Z,19.44
2022-10-23T18:11:20.703Z,19.39
2022-10-23T18:13:47.882Z,19.28
2022-10-23T18:16:15.006Z,19.15
2022-10-23T18:18:43.272Z,19.05
2022-10-23T18:21:10.456Z,18.89
2022-10-23T18:23:37.642Z,18.83
2022-10-23T18:26:05.334Z,18.74
2022-10-23T18:28:32.559Z,18.65
2022-10-23T18:30:59.103Z,18.61
2022-10-23T18:33:26.509Z,18.53
2022-10-23T18:35:53.691Z,18.53
2022-10-23T18:38:20.225Z,18.51
2022-10-23T18:40:54.556Z,18.57
2022-10-23T18:43:42.037Z,18.58
2022-10-23T18:46:07.865Z,18.53
2022-10-23T18:48:35.348Z,18.52
2022-10-23T18:51:01.926Z,18.43
2022-10-23T18:53:29.058Z,18.37
2022-10-23T18:55:55.962Z,18.35
2022-10-23T18:58:22.747Z,18.33
2022-10-23T19:00:49.771Z,18.32
2022-10-23T19:03:16.517Z,18.28
2022-10-23T19:05:47.020Z,18.26
2022-10-23T19:08:13.829Z,18.21
2022-10-23T19:10:43.968Z,18.18
2022-10-23T19:13:10.541Z,18.13
2022-10-23T19:15:37.868Z,18.13
2022-10-23T19:18:08.185Z,18.10
2022-10-23T19:20:35.521Z,18.09
2022-10-23T19:23:04.818Z,18.04
2022-10-23T19:25:34.459Z,18.00
2022-10-23T19:28:03.213Z,17.99
2022-10-23T19:30:30.202Z,18.00
2022-10-23T19:32:56.738Z,18.01
2022-10-23T19:35:23.344Z,18.01
2022-10-23T19:37:49.923Z,17.97
2022-10-23T19:40:16.731Z,17.98
2022-10-23T19:42:44.376Z,18.02
2022-10-23T19:45:16.244Z,17.99
2022-10-23T19:47:43.504Z,17.94
2022-10-23T19:50:11.574Z,17.86
2022-10-23T19:52:38.488Z,17.84
2022-10-23T19:55:06.390Z,17.78
2022-10-23T19:57:37.374Z,17.80
2022-10-23T20:00:06.951Z,17.79
2022-10-23T20:05:08.713Z,17.79
2022-10-23T20:07:37.116Z,17.78
2022-10-23T20:10:08.351Z,17.79
2022-10-23T20:12:34.934Z,17.74
2022-10-23T20:15:01.521Z,17.75
2022-10-23T20:17:28.341Z,17.70
2022-10-23T20:19:54.974Z,17.66
2022-10-23T20:22:21.593Z,17.61
2022-10-23T20:24:48.317Z,17.56
2022-10-23T20:27:15.537Z,17.54
2022-10-23T20:29:42.738Z,17.60
2022-10-23T20:32:09.740Z,17.68
2022-10-23T20:34:36.384Z,17.77
2022-10-23T20:37:02.959Z,17.84
2022-10-23T20:39:29.986Z,17.86
2022-10-23T20:41:56.990Z,17.87
2022-10-23T20:44:24.930Z,17.81
2022-10-23T20:46:52.900Z,17.92
2022-10-23T20:49:20.018Z,17.91
2022-10-23T20:51:55.212Z,17.97
2022-10-23T20:54:28.880Z,17.95
2022-10-23T20:56:57.143Z,17.94
2022-10-23T20:59:23.798Z,17.86
2022-10-23T21:01:53.272Z,17.90
2022-10-23T21:04:22.882Z,17.81
2022-10-23T21:07:10.868Z,17.82
2022-10-23T21:09:38.975Z,17.77
2022-10-23T21:12:06.852Z,17.75
2022-10-23T21:14:33.908Z,17.67
2022-10-23T21:17:00.602Z,17.57
2022-10-23T21:19:27.204Z,17.59
2022-10-23T21:21:54.927Z,17.59
2022-10-23T21:24:21.631Z,17.59
2022-10-23T21:26:48.434Z,17.62
2022-10-23T21:29:19.721Z,17.61
2022-10-23T21:32:01.678Z,17.63
2022-10-23T21:34:29.216Z,17.62
2022-10-23T21:39:46.493Z,17.60
2022-10-23T21:42:14.161Z,17.59
2022-10-23T21:44:41.309Z,17.55
2022-10-23T21:47:07.864Z,17.52
2022-10-23T21:49:34.508Z,17.40
2022-10-23T21:52:01.426Z,17.30
2022-10-23T21:54:27.959Z,17.25
2022-10-23T21:56:55.010Z,17.19
2022-10-23T21:59:27.744Z,17.19
2022-10-23T22:01:57.059Z,17.16
2022-10-23T22:04:23.703Z,17.17
2022-10-23T22:06:50.297Z,17.20
2022-10-23T22:09:19.648Z,17.20
2022-10-23T22:11:47.977Z,17.22
2022-10-23T22:14:14.569Z,17.24
2022-10-23T22:16:42.332Z,17.19
2022-10-23T22:19:12.182Z,17.20
2022-10-23T22:21:39.154Z,17.17
2022-10-23T22:24:06.817Z,17.12
2022-10-23T22:26:39.684Z,17.09
2022-10-23T22:29:16.072Z,17.01
2022-10-23T22:31:45.678Z,16.96
2022-10-23T22:34:40.812Z,16.96
2022-10-23T22:37:10.751Z,16.87
2022-10-23T22:39:38.050Z,16.84
2022-10-23T22:42:04.814Z,16.81
2022-10-23T22:44:31.326Z,16.83
2022-10-23T22:46:59.079Z,16.74
2022-10-23T22:49:25.629Z,16.74
2022-10-23T22:51:52.280Z,16.72
2022-10-23T22:54:19.021Z,16.66
2022-10-23T22:56:45.536Z,16.69
2022-10-23T22:59:12.089Z,16.72
2022-10-23T23:01:42.679Z,16.74
2022-10-23T23:04:19.777Z,16.70
2022-10-23T23:06:57.618Z,16.75
2022-10-23T23:09:24.152Z,16.74
2022-10-23T23:11:52.595Z,16.75
2022-10-23T23:14:23.010Z,16.77
2022-10-23T23:16:51.191Z,16.74
2022-10-23T23:19:18.018Z,16.74
2022-10-23T23:21:44.605Z,16.73
2022-10-23T23:24:11.872Z,16.71
2022-10-23T23:26:38.579Z,16.71
2022-10-23T23:29:05.133Z,16.71
2022-10-23T23:31:31.662Z,16.73
2022-10-23T23:33:59.277Z,16.77
2022-10-23T23:36:27.646Z,16.74
2022-10-23T23:38:56.614Z,16.75
2022-10-23T23:41:23.895Z,16.71
2022-10-23T23:43:50.681Z,16.64
2022-10-23T23:46:18.023Z,16.58
2022-10-23T23:48:48.298Z,16.59
2022-10-23T23:51:20.338Z,16.59
2022-10-23T23:53:48.092Z,16.55
2022-10-23T23:56:14.995Z,16.54
2022-10-23T23:58:41.832Z,16.47
